Time;durP1;ratioP1;P1;durP2;ratioP2;P2;SDS_P1;SDS_P2;PMS_P1;PMS_P2;Temp;Humidity;BMP_temperature;BMP_pressure;BME280_temperature;BME280_humidity;BME280_pressure;Samples;Min_cycle;Max_cycle;Signal;HPM_P1;HPM_P2
2022/11/02 00:01:16;;;;;;;6.00;4.27;;;12.30;95.40;;;;;;5026966;28;20705;-84
2022/11/02 00:03:41;;;;;;;5.97;4.27;;;12.30;95.70;;;;;;5028173;28;20215;-85
2022/11/02 00:06:07;;;;;;;4.90;4.33;;;12.30;96.20;;;;;;5030145;28;20195;-85
2022/11/02 00:08:33;;;;;;;8.30;4.80;;;12.30;96.30;;;;;;5026013;28;20276;-88
2022/11/02 00:10:58;;;;;;;4.53;4.13;;;12.30;95.60;;;;;;5032026;28;20187;-85
2022/11/02 00:13:24;;;;;;;5.00;4.50;;;12.30;96.10;;;;;;5032891;28;20214;-86
2022/11/02 00:15:49;;;;;;;4.03;3.63;;;12.30;95.40;;;;;;5030233;28;20193;-86
2022/11/02 00:18:15;;;;;;;6.53;4.30;;;12.30;94.90;;;;;;5028306;28;20207;-87
2022/11/02 00:20:42;;;;;;;5.73;4.00;;;12.30;95.30;;;;;;5029300;28;20202;-83
2022/11/02 00:23:09;;;;;;;6.23;3.77;;;12.30;95.40;;;;;;5032501;28;20231;-85
2022/11/02 00:25:38;;;;;;;7.40;3.77;;;12.30;95.70;;;;;;5033337;28;20288;-85
2022/11/02 00:28:04;;;;;;;5.63;3.83;;;12.20;96.10;;;;;;5028603;28;20187;-83
2022/11/02 00:30:30;;;;;;;6.63;4.20;;;12.30;97.60;;;;;;5034479;28;20210;-86
2022/11/02 00:32:56;;;;;;;6.27;3.70;;;12.30;98.50;;;;;;5030637;28;20213;-86
2022/11/02 00:35:21;;;;;;;5.47;3.57;;;12.20;98.00;;;;;;5030357;28;20251;-86
2022/11/02 00:37:47;;;;;;;4.80;3.40;;;12.10;98.20;;;;;;5028479;28;20380;-86
2022/11/02 00:40:13;;;;;;;12.80;3.70;;;12.10;99.50;;;;;;5035321;28;20185;-86
2022/11/02 00:42:38;;;;;;;4.67;3.30;;;12.10;99.90;;;;;;5026987;28;20231;-85
2022/11/02 00:45:05;;;;;;;4.70;3.63;;;12.20;99.90;;;;;;5033037;28;20201;-87
2022/11/02 00:47:31;;;;;;;6.17;3.77;;;12.10;99.90;;;;;;5040739;28;20223;-86
2022/11/02 00:49:56;;;;;;;5.97;3.50;;;12.00;99.90;;;;;;5031416;28;20184;-87
2022/11/02 00:52:22;;;;;;;5.13;3.13;;;11.90;99.90;;;;;;5034107;28;20228;-86
2022/11/02 00:54:48;;;;;;;5.00;3.30;;;12.00;99.90;;;;;;5065359;22;20241;-91
2022/11/02 00:57:20;;;;;;;6.60;3.27;;;12.00;99.90;;;;;;5026718;28;20191;-91
2022/11/02 00:59:49;;;;;;;4.63;3.50;;;12.10;99.90;;;;;;5013199;28;20282;-92
2022/11/02 01:02:18;;;;;;;4.40;3.53;;;12.10;99.20;;;;;;5011650;28;20216;-90
2022/11/02 01:04:46;;;;;;;4.83;3.13;;;12.00;99.30;;;;;;5006130;28;20234;-91
2022/11/02 01:07:14;;;;;;;5.03;3.20;;;12.00;99.80;;;;;;5022777;28;20174;-91
2022/11/02 01:09:40;;;;;;;3.87;3.47;;;12.10;99.90;;;;;;5014215;28;20198;-92
2022/11/02 01:12:12;;;;;;;8.10;3.63;;;12.10;99.50;;;;;;5033069;28;20286;-91
2022/11/02 01:14:42;;;;;;;4.93;3.47;;;12.10;98.60;;;;;;5020632;28;20202;-91
2022/11/02 01:17:08;;;;;;;4.17;3.30;;;12.10;97.00;;;;;;5049642;28;20247;-91
2022/11/02 01:19:34;;;;;;;3.90;3.50;;;12.10;98.50;;;;;;5026895;28;20193;-91
2022/11/02 01:22:07;;;;;;;4.97;3.03;;;12.10;99.00;;;;;;5009454;28;20209;-91
2022/11/02 01:24:44;;;;;;;4.67;3.00;;;12.10;99.50;;;;;;5018622;28;20756;-90
2022/11/02 01:27:16;;;;;;;5.43;3.00;;;12.00;99.90;;;;;;5022161;28;20616;-91
2022/11/02 01:29:44;;;;;;;3.80;2.90;;;12.10;99.80;;;;;;5028105;28;20260;-92
2022/11/02 01:32:53;;;;;;;3.77;2.70;;;12.00;99.90;;;;;;5024495;28;20197;-91
2022/11/02 01:35:25;;;;;;;7.17;2.70;;;12.00;99.90;;;;;;5011893;28;20225;-92
2022/11/02 01:37:57;;;;;;;5.57;3.30;;;11.90;99.90;;;;;;5016337;28;20203;-92
2022/11/02 01:40:26;;;;;;;5.63;3.30;;;12.00;99.90;;;;;;5027759;28;20193;-91
2022/11/02 01:42:58;;;;;;;7.20;3.40;;;12.00;98.20;;;;;;5030636;28;20224;-91
2022/11/02 01:45:24;;;;;;;4.43;3.30;;;12.00;98.90;;;;;;5081816;22;20301;-85
2022/11/02 01:47:49;;;;;;;6.30;3.47;;;12.10;99.00;;;;;;5071912;28;20176;-85
2022/11/02 01:50:22;;;;;;;4.80;3.23;;;12.10;99.00;;;;;;5079464;28;20176;-84
2022/11/02 01:52:48;;;;;;;4.53;3.00;;;12.10;98.90;;;;;;5051119;28;20246;-84
2022/11/02 01:55:18;;;;;;;2.90;2.70;;;12.10;98.40;;;;;;5078186;28;20235;-84
2022/11/02 01:57:51;;;;;;;6.07;3.40;;;12.10;98.80;;;;;;5099510;22;20185;-85
2022/11/02 02:00:18;;;;;;;3.60;2.90;;;12.20;98.00;;;;;;5006241;28;20286;-84
2022/11/02 02:02:53;;;;;;;6.03;3.07;;;12.10;97.30;;;;;;5013081;28;20221;-85
2022/11/02 02:05:21;;;;;;;5.23;2.90;;;12.10;98.40;;;;;;5007903;28;20188;-84
2022/11/02 02:07:49;;;;;;;4.63;3.20;;;12.10;98.50;;;;;;5015450;28;20695;-85
2022/11/02 02:10:15;;;;;;;4.73;3.27;;;12.10;98.80;;;;;;5006231;28;20619;-86
2022/11/02 02:12:42;;;;;;;7.57;2.90;;;12.10;99.60;;;;;;5009768;28;20213;-86
2022/11/02 02:15:09;;;;;;;4.70;2.97;;;12.20;98.20;;;;;;5025364;28;20187;-88
2022/11/02 02:17:44;;;;;;;5.30;2.90;;;12.20;97.90;;;;;;5020121;28;20194;-86
2022/11/02 02:20:48;;;;;;;4.73;2.90;;;12.20;97.80;;;;;;5019321;28;20193;-87
2022/11/02 02:23:24;;;;;;;4.77;2.93;;;12.10;97.60;;;;;;5005319;28;20214;-87
2022/11/02 02:25:59;;;;;;;3.40;2.60;;;12.00;99.70;;;;;;5003593;28;20332;-84
2022/11/02 02:28:24;;;;;;;3.97;3.00;;;12.10;99.90;;;;;;5012428;28;20233;-88
2022/11/02 02:31:01;;;;;;;2.83;2.63;;;12.10;99.30;;;;;;5011086;28;20186;-87
2022/11/02 02:33:34;;;;;;;4.00;2.67;;;12.00;99.20;;;;;;5015696;28;20249;-86
2022/11/02 02:36:13;;;;;;;3.23;2.67;;;12.10;99.90;;;;;;5023087;28;20191;-85
2022/11/02 02:38:47;;;;;;;4.77;2.70;;;12.10;99.90;;;;;;5015011;28;20197;-86
2022/11/02 02:41:40;;;;;;;6.77;3.00;;;12.10;99.90;;;;;;5027005;28;20203;-87
2022/11/02 02:44:15;;;;;;;2.93;2.67;;;12.20;99.00;;;;;;5016702;28;20326;-87
2022/11/02 02:46:52;;;;;;;4.33;2.40;;;12.20;99.20;;;;;;5019614;28;20277;-85
2022/11/02 02:49:22;;;;;;;4.20;2.70;;;12.20;98.40;;;;;;5010606;28;20209;-87
2022/11/02 02:51:48;;;;;;;4.63;2.57;;;12.20;98.90;;;;;;5022756;28;20186;-86
2022/11/02 02:54:25;;;;;;;4.10;2.87;;;12.30;99.50;;;;;;5019177;28;20176;-86
2022/11/02 02:56:59;;;;;;;5.20;3.00;;;12.30;98.90;;;;;;5017160;28;20192;-85
2022/11/02 02:59:39;;;;;;;6.73;2.80;;;12.20;98.80;;;;;;5026381;28;20225;-86
2022/11/02 03:02:10;;;;;;;4.73;2.67;;;12.30;99.00;;;;;;5000920;28;20216;-86
2022/11/02 03:04:35;;;;;;;5.97;2.90;;;12.30;98.30;;;;;;5015755;28;20214;-86
2022/11/02 03:07:02;;;;;;;8.57;3.03;;;12.20;98.50;;;;;;5014670;28;20175;-85
2022/11/02 03:09:44;;;;;;;4.43;2.73;;;12.10;98.40;;;;;;5022868;28;20204;-85
2022/11/02 03:12:48;;;;;;;3.97;2.67;;;12.10;99.30;;;;;;5017898;28;20213;-85
2022/11/02 03:15:25;;;;;;;6.03;2.80;;;12.00;99.10;;;;;;4982500;28;20203;-85
2022/11/02 03:18:18;;;;;;;4.33;2.80;;;12.00;99.30;;;;;;5018506;28;20527;-85
2022/11/02 03:21:22;;;;;;;4.73;2.60;;;12.10;99.50;;;;;;5020286;28;20184;-86
2022/11/02 03:24:06;;;;;;;4.00;2.73;;;12.00;99.90;;;;;;5024973;28;20559;-86
2022/11/02 03:27:00;;;;;;;6.17;3.07;;;12.00;99.90;;;;;;5024577;28;20180;-86
2022/11/02 03:29:35;;;;;;;4.37;3.00;;;11.90;99.90;;;;;;5019648;28;20233;-85
2022/11/02 03:32:18;;;;;;;3.90;2.63;;;11.90;99.90;;;;;;5019375;28;20803;-85
2022/11/02 03:34:51;;;;;;;7.87;2.87;;;11.90;99.90;;;;;;5011535;28;20224;-85
2022/11/02 03:37:33;;;;;;;4.53;2.93;;;11.90;99.90;;;;;;5010720;28;20209;-85
2022/11/02 03:40:02;;;;;;;5.23;2.80;;;11.80;99.90;;;;;;5010945;28;20192;-85
2022/11/02 03:42:31;;;;;;;5.33;2.70;;;11.80;99.90;;;;;;5018923;28;20214;-85
2022/11/02 03:45:02;;;;;;;6.57;2.60;;;11.80;99.90;;;;;;5018242;28;20184;-86
2022/11/02 03:47:30;;;;;;;4.77;2.83;;;11.80;99.90;;;;;;5022165;28;20635;-85
2022/11/02 03:49:58;;;;;;;5.47;2.70;;;11.70;99.90;;;;;;5023704;28;20196;-86
2022/11/02 03:52:28;;;;;;;5.03;3.00;;;11.60;99.90;;;;;;5014394;28;20220;-87
2022/11/02 03:55:27;;;;;;;4.57;2.57;;;11.60;99.90;;;;;;5010211;28;20279;-86
2022/11/02 03:57:53;;;;;;;5.20;2.93;;;11.60;99.90;;;;;;5000711;28;20220;-85
2022/11/02 04:00:22;;;;;;;4.63;2.57;;;11.60;99.90;;;;;;5021052;28;20267;-85
2022/11/02 04:02:52;;;;;;;5.03;2.87;;;11.70;99.90;;;;;;5022865;28;20205;-86
2022/11/02 04:05:19;;;;;;;5.80;2.67;;;11.70;99.90;;;;;;5017832;28;20199;-86
2022/11/02 04:10:33;;;;;;;4.80;2.87;;;11.80;99.90;;;;;;5025781;28;20192;-85
2022/11/02 04:15:44;;;;;;;7.83;2.80;;;11.70;99.90;;;;;;5014928;28;20192;-86
2022/11/02 04:20:54;;;;;;;5.03;2.83;;;11.80;99.90;;;;;;5015659;28;20246;-86
2022/11/02 04:26:04;;;;;;;4.50;2.97;;;11.80;99.90;;;;;;5021380;28;20594;-85
2022/11/02 04:28:30;;;;;;;5.03;2.73;;;11.80;99.90;;;;;;5013470;28;20239;-86
2022/11/02 04:30:59;;;;;;;5.63;2.60;;;11.70;99.90;;;;;;5006006;28;20279;-86
2022/11/02 04:33:31;;;;;;;7.43;2.97;;;11.80;99.90;;;;;;5014423;28;20231;-86
2022/11/02 04:36:05;;;;;;;5.63;2.60;;;11.80;99.90;;;;;;5013941;28;20184;-85
2022/11/02 04:38:40;;;;;;;5.97;2.80;;;11.80;99.90;;;;;;5019231;28;20227;-85
2022/11/02 04:44:05;;;;;;;4.93;2.63;;;11.90;99.90;;;;;;5024926;28;20198;-86
2022/11/02 04:46:33;;;;;;;6.90;3.17;;;12.00;99.90;;;;;;5026550;28;20202;-85
2022/11/02 04:48:59;;;;;;;4.90;2.93;;;12.10;99.90;;;;;;5035230;28;20216;-86
2022/11/02 04:51:26;;;;;;;6.90;3.20;;;12.10;99.90;;;;;;5015422;28;20188;-85
2022/11/02 04:53:53;;;;;;;11.43;3.27;;;12.10;99.90;;;;;;5009513;28;20301;-85
2022/11/02 04:56:19;;;;;;;9.20;3.47;;;12.20;99.90;;;;;;5021760;28;20203;-86
2022/11/02 04:58:53;;;;;;;6.23;3.37;;;12.10;99.90;;;;;;5009558;28;20498;-85
2022/11/02 05:01:20;;;;;;;6.10;3.30;;;12.20;99.90;;;;;;5018913;28;20710;-86
2022/11/02 05:03:50;;;;;;;6.77;3.10;;;12.10;99.90;;;;;;5013428;28;20212;-86
2022/11/02 05:06:16;;;;;;;8.83;3.60;;;12.20;99.90;;;;;;5013502;28;20185;-86
2022/11/02 05:08:42;;;;;;;7.67;3.67;;;12.10;99.90;;;;;;5000246;28;20216;-87
2022/11/02 05:11:09;;;;;;;6.13;3.30;;;12.20;99.90;;;;;;5017159;28;20184;-86
2022/11/02 05:13:36;;;;;;;8.57;3.57;;;12.00;99.90;;;;;;5020676;28;20188;-86
2022/11/02 05:16:02;;;;;;;7.63;3.37;;;12.10;99.90;;;;;;5020795;28;20197;-86
2022/11/02 05:18:28;;;;;;;8.73;3.53;;;12.00;99.90;;;;;;5020448;28;20299;-86
2022/11/02 05:20:59;;;;;;;5.57;3.33;;;12.00;99.90;;;;;;5007070;28;20269;-85
2022/11/02 05:23:25;;;;;;;5.27;3.20;;;12.10;99.90;;;;;;5024418;28;20650;-85
2022/11/02 05:25:53;;;;;;;7.47;3.40;;;12.20;99.90;;;;;;5017707;28;20205;-87
2022/11/02 05:28:18;;;;;;;7.77;3.43;;;12.20;99.90;;;;;;5025321;28;20228;-84
2022/11/02 05:30:44;;;;;;;7.83;3.67;;;12.20;99.90;;;;;;5018879;28;20179;-87
2022/11/02 05:33:10;;;;;;;5.47;3.30;;;12.20;99.90;;;;;;5018556;28;20185;-85
2022/11/02 05:35:35;;;;;;;6.17;3.20;;;12.20;99.90;;;;;;5024170;28;20215;-85
2022/11/02 05:38:01;;;;;;;6.87;3.43;;;12.10;99.90;;;;;;5015787;28;20568;-86
2022/11/02 05:40:27;;;;;;;6.70;3.10;;;12.10;99.90;;;;;;5015274;28;20228;-85
2022/11/02 05:43:01;;;;;;;6.33;3.23;;;12.20;99.90;;;;;;5028695;28;20300;-84
2022/11/02 05:45:27;;;;;;;8.87;3.23;;;12.20;99.90;;;;;;5012509;28;20194;-85
2022/11/02 05:47:52;;;;;;;7.63;3.33;;;12.20;99.90;;;;;;5025399;28;20256;-87
2022/11/02 05:50:18;;;;;;;5.17;3.60;;;12.20;99.90;;;;;;5023455;28;20300;-85
2022/11/02 05:52:44;;;;;;;8.97;3.10;;;12.00;99.90;;;;;;5025649;28;20191;-86
2022/11/02 05:55:10;;;;;;;3.53;3.00;;;12.00;99.90;;;;;;5026331;28;20256;-87
2022/11/02 05:57:35;;;;;;;6.93;3.37;;;12.00;99.90;;;;;;5005888;28;20185;-86
2022/11/02 06:00:02;;;;;;;7.23;3.40;;;12.00;99.90;;;;;;5019272;28;20215;-86
2022/11/02 06:02:29;;;;;;;6.57;3.27;;;11.80;99.90;;;;;;5014640;28;20231;-85
2022/11/02 06:04:54;;;;;;;8.03;3.57;;;11.90;99.90;;;;;;5017873;28;20190;-86
2022/11/02 06:07:20;;;;;;;7.87;3.40;;;11.90;99.90;;;;;;5013002;28;20185;-85
2022/11/02 06:09:46;;;;;;;7.90;4.03;;;11.90;99.90;;;;;;5013587;28;20208;-85
2022/11/02 06:12:12;;;;;;;8.03;3.60;;;11.80;99.90;;;;;;5011930;28;20186;-87
2022/11/02 06:14:37;;;;;;;6.83;3.40;;;11.70;99.90;;;;;;5030279;28;20189;-87
2022/11/02 06:17:03;;;;;;;5.47;3.23;;;11.70;99.90;;;;;;5026313;28;20250;-87
2022/11/02 06:19:29;;;;;;;8.13;3.80;;;11.70;99.90;;;;;;5030183;28;20291;-88
2022/11/02 06:21:55;;;;;;;7.63;3.73;;;11.80;99.90;;;;;;5026542;28;20273;-87
2022/11/02 06:24:20;;;;;;;7.67;3.33;;;11.70;99.90;;;;;;5009089;28;20651;-86
2022/11/02 06:26:46;;;;;;;7.93;3.83;;;11.80;99.90;;;;;;5010229;28;20190;-85
2022/11/02 06:29:12;;;;;;;9.43;4.00;;;11.90;99.90;;;;;;5011290;28;20204;-86
2022/11/02 06:31:37;;;;;;;5.50;3.70;;;11.90;99.90;;;;;;5016007;28;20194;-85
2022/11/02 06:34:03;;;;;;;7.60;4.10;;;11.90;99.90;;;;;;5012772;28;20182;-86
2022/11/02 06:36:28;;;;;;;6.23;4.00;;;11.80;99.90;;;;;;4999485;28;20185;-86
2022/11/02 06:38:54;;;;;;;5.93;3.80;;;11.70;99.90;;;;;;5006236;28;20212;-87
2022/11/02 06:41:20;;;;;;;5.73;3.87;;;11.70;99.90;;;;;;5007745;28;20212;-86
2022/11/02 06:43:45;;;;;;;7.07;3.30;;;11.80;99.90;;;;;;5007661;28;20214;-85
2022/11/02 06:46:11;;;;;;;6.53;3.57;;;11.70;99.90;;;;;;5006976;28;20261;-86
2022/11/02 06:48:37;;;;;;;4.80;3.77;;;11.70;99.90;;;;;;5018766;28;20714;-86
2022/11/02 06:51:04;;;;;;;9.77;4.10;;;11.60;99.90;;;;;;5011540;28;20195;-86
2022/11/02 06:53:29;;;;;;;8.27;4.07;;;11.50;99.90;;;;;;5014361;28;20207;-87
2022/11/02 06:55:56;;;;;;;8.97;3.43;;;11.50;99.90;;;;;;5001979;28;20189;-86
2022/11/02 06:58:23;;;;;;;10.10;3.93;;;11.60;99.90;;;;;;5016167;28;20217;-86
2022/11/02 07:00:49;;;;;;;6.53;4.27;;;11.60;99.90;;;;;;5016090;28;20218;-85
2022/11/02 07:03:15;;;;;;;9.70;3.53;;;11.80;99.90;;;;;;5006870;28;20229;-86
2022/11/02 07:05:41;;;;;;;9.57;3.97;;;11.70;99.90;;;;;;5016741;28;20253;-85
2022/11/02 07:08:07;;;;;;;6.83;3.53;;;11.60;99.90;;;;;;5010637;28;20288;-85
2022/11/02 07:10:34;;;;;;;6.27;4.00;;;11.70;99.90;;;;;;5011700;28;20280;-86
2022/11/02 07:13:00;;;;;;;7.63;3.87;;;11.70;99.90;;;;;;5019308;28;20393;-87
2022/11/02 07:15:26;;;;;;;7.07;3.87;;;11.70;99.90;;;;;;5008785;28;20226;-88
2022/11/02 07:17:52;;;;;;;10.47;4.20;;;11.80;99.90;;;;;;5012731;28;20190;-87
2022/11/02 07:20:18;;;;;;;5.87;3.67;;;11.80;99.90;;;;;;5011165;28;20182;-85
2022/11/02 07:22:52;;;;;;;6.47;3.50;;;11.90;99.90;;;;;;5019810;28;20217;-85
2022/11/02 07:25:18;;;;;;;9.47;4.47;;;11.90;99.90;;;;;;5019571;28;20178;-87
2022/11/02 07:27:43;;;;;;;8.00;4.13;;;12.00;99.90;;;;;;5015007;28;20197;-86
2022/11/02 07:30:09;;;;;;;7.60;3.90;;;12.00;99.90;;;;;;5015583;28;20199;-86
2022/11/02 07:32:39;;;;;;;6.60;3.70;;;12.00;99.90;;;;;;5015480;28;20247;-86
2022/11/02 07:35:07;;;;;;;6.90;4.10;;;12.10;99.90;;;;;;5012620;28;20392;-86
2022/11/02 07:37:32;;;;;;;8.07;4.10;;;12.10;99.90;;;;;;5012710;28;20193;-86
2022/11/02 07:39:58;;;;;;;8.50;4.17;;;12.20;99.90;;;;;;5012870;28;20197;-86
2022/11/02 07:42:23;;;;;;;7.97;3.97;;;12.10;99.90;;;;;;5010618;28;20574;-86
2022/11/02 07:44:49;;;;;;;5.10;3.80;;;12.00;99.90;;;;;;5013976;28;20189;-86
2022/11/02 07:47:15;;;;;;;7.10;4.07;;;12.00;99.90;;;;;;5012440;28;20195;-87
2022/11/02 07:49:40;;;;;;;5.53;3.77;;;12.10;99.90;;;;;;5015880;28;20233;-86
2022/11/02 07:52:06;;;;;;;7.33;3.90;;;12.00;99.90;;;;;;5015534;28;20265;-85
2022/11/02 07:54:32;;;;;;;7.63;4.03;;;12.20;99.90;;;;;;5011561;28;20231;-86
2022/11/02 07:56:57;;;;;;;5.10;3.50;;;12.00;99.90;;;;;;5010220;28;20251;-85
2022/11/02 07:59:23;;;;;;;5.93;3.67;;;12.10;99.90;;;;;;5056916;22;20237;-84
2022/11/02 08:01:49;;;;;;;7.73;4.00;;;12.20;99.90;;;;;;5058145;28;20380;-84
2022/11/02 08:04:14;;;;;;;7.50;3.87;;;12.10;99.90;;;;;;5054008;28;20192;-84
2022/11/02 08:06:40;;;;;;;6.17;3.60;;;12.30;99.90;;;;;;5054895;28;20200;-85
2022/11/02 08:09:06;;;;;;;13.87;4.30;;;12.30;99.90;;;;;;5055112;28;20204;-84
2022/11/02 08:11:31;;;;;;;7.63;4.20;;;12.20;99.90;;;;;;5048674;28;20186;-85
2022/11/02 08:13:57;;;;;;;8.03;3.87;;;12.30;99.90;;;;;;5051949;28;20200;-84
2022/11/02 08:16:23;;;;;;;6.93;3.40;;;12.30;99.90;;;;;;5052066;28;20694;-85
2022/11/02 08:18:48;;;;;;;6.23;3.20;;;12.30;99.90;;;;;;5054803;28;20458;-85
2022/11/02 08:21:14;;;;;;;4.43;3.10;;;12.40;99.90;;;;;;5055404;28;20192;-85
2022/11/02 08:23:40;;;;;;;6.23;3.23;;;12.50;99.90;;;;;;5056085;28;20410;-85
2022/11/02 08:26:05;;;;;;;7.50;3.77;;;12.40;99.90;;;;;;5049187;28;20264;-85
2022/11/02 08:28:34;;;;;;;6.67;3.67;;;12.40;99.90;;;;;;5053103;28;20200;-85
2022/11/02 08:31:00;;;;;;;5.50;3.30;;;12.50;99.90;;;;;;5058035;28;20188;-84
2022/11/02 08:33:26;;;;;;;4.10;3.40;;;12.50;99.90;;;;;;5051904;28;20640;-85
2022/11/02 08:35:52;;;;;;;5.57;3.47;;;12.60;99.90;;;;;;5051480;28;20283;-84
2022/11/02 08:38:21;;;;;;;7.97;3.50;;;12.70;99.90;;;;;;5050762;28;20253;-84
2022/11/02 08:40:47;;;;;;;7.37;3.53;;;12.70;99.90;;;;;;5056724;28;20199;-85
2022/11/02 08:43:13;;;;;;;5.77;3.10;;;12.90;99.90;;;;;;5048652;28;20307;-85
2022/11/02 08:45:42;;;;;;;6.53;3.47;;;12.90;99.90;;;;;;5052704;28;20184;-85
2022/11/02 08:48:08;;;;;;;5.77;3.23;;;12.90;99.90;;;;;;5049171;28;20181;-85
2022/11/02 08:50:34;;;;;;;6.33;3.40;;;12.90;99.90;;;;;;5048163;28;20258;-84
2022/11/02 08:53:00;;;;;;;7.10;3.60;;;13.10;99.90;;;;;;5050785;28;20380;-86
2022/11/02 08:55:26;;;;;;;5.07;3.27;;;13.10;99.90;;;;;;5050757;28;20211;-85
2022/11/02 08:57:57;;;;;;;5.60;3.33;;;13.00;99.90;;;;;;5059990;28;20207;-86
2022/11/02 09:00:25;;;;;;;5.10;3.30;;;13.20;99.90;;;;;;5052809;28;20228;-85
2022/11/02 09:03:04;;;;;;;6.00;3.27;;;13.20;99.90;;;;;;5056709;28;20235;-85
2022/11/02 09:05:36;;;;;;;6.63;3.27;;;13.20;99.90;;;;;;5048891;28;20836;-85
2022/11/02 09:08:04;;;;;;;7.13;3.03;;;13.20;99.90;;;;;;5049768;28;20215;-83
2022/11/02 09:10:32;;;;;;;8.27;3.30;;;13.30;99.90;;;;;;5050540;28;20185;-85
2022/11/02 09:12:59;;;;;;;8.93;3.43;;;13.20;99.90;;;;;;5047796;28;20248;-85
2022/11/02 09:15:25;;;;;;;6.50;3.53;;;13.20;99.90;;;;;;5050205;28;20188;-85
2022/11/02 09:17:51;;;;;;;4.33;3.07;;;13.40;99.90;;;;;;5050837;28;20188;-86
2022/11/02 09:20:18;;;;;;;5.60;3.47;;;13.40;99.90;;;;;;5052655;28;20335;-86
2022/11/02 09:22:44;;;;;;;4.73;2.77;;;13.50;99.90;;;;;;5051769;28;20209;-86
2022/11/02 09:25:10;;;;;;;6.03;3.33;;;13.40;99.90;;;;;;5052916;28;20181;-86
2022/11/02 09:27:35;;;;;;;9.47;3.73;;;13.70;99.90;;;;;;5048073;28;20186;-85
2022/11/02 09:30:03;;;;;;;5.03;3.23;;;13.60;99.90;;;;;;5049634;28;20217;-84
2022/11/02 09:32:32;;;;;;;6.13;3.27;;;13.80;99.90;;;;;;5047061;28;20214;-86
2022/11/02 09:35:05;;;;;;;6.63;3.33;;;13.90;98.10;;;;;;5047887;28;20190;-85
2022/11/02 09:37:31;;;;;;;6.27;2.80;;;13.90;98.20;;;;;;5049220;28;20216;-86
2022/11/02 09:39:57;;;;;;;7.90;3.30;;;13.90;98.10;;;;;;5050551;28;20229;-84
2022/11/02 09:42:40;;;;;;;5.37;3.00;;;14.00;97.80;;;;;;5053308;28;20205;-85
2022/11/02 09:45:12;;;;;;;6.80;3.43;;;14.00;97.80;;;;;;5056801;28;20141;-84
2022/11/02 09:47:51;;;;;;;5.60;3.10;;;13.80;99.50;;;;;;5057990;28;20260;-85
2022/11/02 09:50:23;;;;;;;9.47;3.10;;;13.90;98.20;;;;;;5035069;28;20265;-84
2022/11/02 09:52:58;;;;;;;5.50;2.80;;;13.90;96.50;;;;;;5057070;28;20204;-85
2022/11/02 09:55:32;;;;;;;5.80;3.57;;;13.70;97.60;;;;;;5048315;28;20499;-84
2022/11/02 09:58:09;;;;;;;7.47;3.90;;;13.80;98.80;;;;;;5039434;28;20188;-85
2022/11/02 10:00:38;;;;;;;7.23;3.40;;;14.00;97.20;;;;;;5051598;28;20207;-84
2022/11/02 10:03:41;;;;;;;10.83;3.37;;;13.90;96.90;;;;;;5036792;28;20223;-85
2022/11/02 10:06:14;;;;;;;6.33;3.10;;;14.10;96.20;;;;;;5044837;28;20621;-85
2022/11/02 10:09:18;;;;;;;6.00;3.43;;;14.30;96.20;;;;;;5048711;28;20761;-84
2022/11/02 10:11:43;;;;;;;6.10;3.30;;;14.10;97.10;;;;;;5010627;28;20745;-86
2022/11/02 10:14:24;;;;;;;6.93;3.20;;;13.90;97.50;;;;;;5049797;28;20214;-84
2022/11/02 10:17:01;;;;;;;8.67;6.03;;;14.10;96.50;;;;;;5052029;28;20189;-85
2022/11/02 10:19:29;;;;;;;10.43;3.60;;;14.10;91.10;;;;;;5042797;28;20235;-84
2022/11/02 10:21:57;;;;;;;7.70;3.30;;;14.00;88.60;;;;;;5050656;28;20183;-87
2022/11/02 10:24:24;;;;;;;16.67;4.20;;;13.90;89.10;;;;;;5051386;28;20220;-84
2022/11/02 10:26:56;;;;;;;8.17;3.70;;;13.90;89.90;;;;;;5047354;28;20397;-83
2022/11/02 10:29:50;;;;;;;8.43;3.43;;;14.10;88.70;;;;;;5048424;28;20574;-85
2022/11/02 10:32:16;;;;;;;9.17;4.33;;;14.10;90.00;;;;;;5045381;28;20194;-85
2022/11/02 10:34:43;;;;;;;8.80;3.53;;;14.40;86.50;;;;;;5050028;28;20197;-85
2022/11/02 10:37:30;;;;;;;9.27;3.70;;;14.30;84.90;;;;;;5032281;28;20200;-85
2022/11/02 10:40:11;;;;;;;9.63;3.67;;;14.30;86.00;;;;;;5046236;28;20209;-85
2022/11/02 10:43:03;;;;;;;10.67;4.17;;;14.40;88.10;;;;;;5056631;28;20302;-84
2022/11/02 10:45:55;;;;;;;9.60;3.70;;;14.30;87.80;;;;;;5056901;28;20277;-84
2022/11/02 10:48:26;;;;;;;6.40;3.33;;;14.30;88.00;;;;;;5059891;28;20252;-85
2022/11/02 10:51:04;;;;;;;12.50;3.60;;;14.20;85.70;;;;;;5067064;28;20272;-87
2022/11/02 10:53:39;;;;;;;7.93;3.80;;;14.40;85.90;;;;;;5035799;28;20209;-84
2022/11/02 10:56:46;;;;;;;11.93;4.20;;;14.60;85.40;;;;;;5055762;28;20223;-85
2022/11/02 10:59:15;;;;;;;7.20;3.57;;;14.70;84.30;;;;;;4978212;28;20796;-86
2022/11/02 11:01:57;;;;;;;9.30;3.53;;;15.00;82.90;;;;;;4978401;28;20194;-84
2022/11/02 11:04:28;;;;;;;6.13;3.00;;;15.20;84.10;;;;;;5025370;28;20222;-84
2022/11/02 11:06:55;;;;;;;9.47;3.53;;;15.80;80.10;;;;;;5055513;28;20268;-85
2022/11/02 11:09:32;;;;;;;8.47;3.70;;;15.80;80.90;;;;;;5053678;28;20209;-85
2022/11/02 11:11:58;;;;;;;8.67;3.60;;;15.90;80.40;;;;;;5055804;28;20173;-84
2022/11/02 11:14:29;;;;;;;5.87;3.57;;;16.00;75.30;;;;;;5052676;28;20196;-84
2022/11/02 11:16:58;;;;;;;8.10;3.53;;;16.00;73.90;;;;;;5049457;28;20201;-87
2022/11/02 11:19:40;;;;;;;9.77;3.50;;;16.00;74.20;;;;;;5051326;28;20205;-84
2022/11/02 11:22:21;;;;;;;8.87;4.13;;;15.70;75.70;;;;;;5050677;28;20225;-84
2022/11/02 11:24:46;;;;;;;8.83;4.20;;;15.50;74.50;;;;;;5048649;28;20541;-85
2022/11/02 11:27:12;;;;;;;7.20;3.90;;;15.60;74.10;;;;;;5050462;28;20184;-85
2022/11/02 11:29:44;;;;;;;5.60;3.23;;;15.80;72.20;;;;;;5056590;28;20672;-84
2022/11/02 11:32:25;;;;;;;6.53;3.40;;;16.20;72.80;;;;;;5052590;28;20185;-85
2022/11/02 11:35:17;;;;;;;6.00;3.17;;;16.60;67.50;;;;;;5051964;28;20188;-85
2022/11/02 11:37:51;;;;;;;7.90;3.47;;;16.70;67.20;;;;;;5047355;28;20280;-84
2022/11/02 11:40:20;;;;;;;6.13;3.37;;;17.00;66.90;;;;;;5053843;28;20224;-85
2022/11/02 11:42:48;;;;;;;7.20;3.63;;;17.10;65.00;;;;;;5051412;28;20220;-84
2022/11/02 11:45:23;;;;;;;8.80;3.40;;;17.10;65.00;;;;;;5046932;28;20184;-86
2022/11/02 11:48:18;;;;;;;6.53;3.20;;;17.30;62.60;;;;;;5051227;28;20223;-85
2022/11/02 11:50:48;;;;;;;10.70;4.33;;;17.30;63.20;;;;;;5058684;28;20205;-85
2022/11/02 11:53:21;;;;;;;7.23;3.53;;;17.40;62.60;;;;;;5049648;28;20190;-84
2022/11/02 11:55:57;;;;;;;6.00;3.17;;;17.60;60.90;;;;;;5054109;28;20277;-85
2022/11/02 11:58:33;;;;;;;9.47;3.13;;;17.60;61.10;;;;;;5054651;28;20205;-85
2022/11/02 12:01:10;;;;;;;8.07;3.47;;;17.50;60.90;;;;;;5052198;28;20215;-87
2022/11/02 12:03:55;;;;;;;10.73;3.63;;;17.60;62.00;;;;;;5050692;28;20212;-84
2022/11/02 12:06:24;;;;;;;4.77;3.10;;;17.80;58.70;;;;;;5058003;28;20196;-83
2022/11/02 12:08:59;;;;;;;6.22;3.33;;;17.80;57.90;;;;;;5060954;28;20222;-85
2022/11/02 12:11:32;;;;;;;8.32;3.20;;;18.00;59.70;;;;;;5038374;28;20201;-85
2022/11/02 12:14:04;;;;;;;8.77;3.60;;;17.80;59.00;;;;;;5059658;28;20698;-85
2022/11/02 12:16:51;;;;;;;9.05;3.25;;;17.90;57.00;;;;;;5052407;28;20279;-87
2022/11/02 12:19:38;;;;;;;7.53;3.67;;;17.70;58.50;;;;;;5059762;28;20214;-85
2022/11/02 12:22:18;;;;;;;6.18;3.03;;;18.20;53.80;;;;;;5051823;28;20238;-86
2022/11/02 12:25:19;;;;;;;5.07;3.25;;;18.50;54.60;;;;;;5057261;28;20205;-85
2022/11/02 12:27:50;;;;;;;6.68;3.45;;;18.30;55.30;;;;;;5048197;28;20183;-85
2022/11/02 12:30:23;;;;;;;5.47;3.60;;;18.60;54.10;;;;;;5050765;28;20228;-85
2022/11/02 12:33:10;;;;;;;6.95;3.10;;;18.90;54.30;;;;;;5039619;28;20202;-85
2022/11/02 12:35:57;;;;;;;7.55;3.55;;;18.80;53.20;;;;;;5051695;28;20195;-85
2022/11/02 12:38:56;;;;;;;7.53;3.63;;;18.60;56.30;;;;;;5042582;28;20212;-86
2022/11/02 12:41:44;;;;;;;8.55;3.63;;;18.70;53.50;;;;;;5059354;28;20268;-87
2022/11/02 12:44:20;;;;;;;8.02;3.47;;;19.00;52.20;;;;;;5043332;28;20232;-85
2022/11/02 12:46:56;;;;;;;7.20;3.70;;;18.90;54.30;;;;;;5034076;28;20589;-85
2022/11/02 12:49:40;;;;;;;7.03;4.03;;;18.80;53.60;;;;;;5044481;28;20204;-86
2022/11/02 12:52:15;;;;;;;5.95;3.40;;;19.40;52.70;;;;;;5043978;28;20180;-84
2022/11/02 12:54:46;;;;;;;8.38;3.60;;;19.70;51.60;;;;;;5042088;28;20218;-88
2022/11/02 12:57:16;;;;;;;9.98;3.63;;;19.40;50.20;;;;;;5046929;28;20173;-85
2022/11/02 12:59:43;;;;;;;5.88;3.05;;;19.20;53.40;;;;;;5046111;28;20216;-86
2022/11/02 13:02:31;;;;;;;4.50;3.05;;;19.30;50.70;;;;;;5044992;28;20581;-86
2022/11/02 13:05:10;;;;;;;8.30;3.35;;;19.30;49.60;;;;;;5038849;28;20181;-85
2022/11/02 13:07:43;;;;;;;5.95;3.20;;;19.20;50.60;;;;;;5054170;28;20188;-86
2022/11/02 13:10:27;;;;;;;5.75;3.45;;;19.20;50.90;;;;;;5046754;28;20204;-86
2022/11/02 13:12:58;;;;;;;6.65;3.80;;;18.90;51.10;;;;;;5050538;28;20259;-87
2022/11/02 13:15:26;;;;;;;8.98;3.75;;;18.90;53.20;;;;;;5057361;28;20270;-86
2022/11/02 13:17:59;;;;;;;5.45;3.22;;;18.90;53.10;;;;;;5049323;28;20172;-87
2022/11/02 13:20:49;;;;;;;8.18;3.47;;;19.30;51.80;;;;;;5053339;28;20228;-86